This is the latest recevied weather packets stored in our database for station/object N5ZKK. If no packets are shown the sender has not sent any weather packets the latest 10 day(s).
| Time | Temp. | Humidity | Pressure | Rain* | Wind** | Luminosity | Snow |
|---|---|---|---|---|---|---|---|
| 1777898119 | 16.11° C | 92% | 1017.3 hPa | 0 mm | - | - | - |
| 1777897521 | 16.11° C | 91% | 1017.2 hPa | 0 mm | - | - | - |
| 1777893319 | 15.56° C | 90% | 1016.9 hPa | 0 mm | - | - | - |
| 1777892720 | 15.56° C | 90% | 1016.8 hPa | 0 mm | - | - | - |
| 1777887932 | 16.11° C | 89% | 1017.4 hPa | 0 mm | - | - | - |
| 1777880722 | 15.56° C | 88% | 1018.2 hPa | 0 mm | - | - | - |
| 1777880119 | 15.56° C | 87% | 1018.2 hPa | 0 mm | - | - | - |
| 1777877716 | 16.11° C | 83% | 1018.7 hPa | 0 mm | - | - | - |
| 1777877138 | 16.11° C | 82% | 1019 hPa | 0 mm | - | - | - |
| 1777874128 | 16.11° C | 77% | 1019.6 hPa | 0 mm | - | - | - |
| 1777873531 | 16.11° C | 76% | 1019.5 hPa | 0 mm | - | - | - |
| 1777869329 | 15° C | 82% | 1019.8 hPa | 0 mm | - | - | - |
| 1777863950 | 17.22° C | 70% | 1019.9 hPa | 0 mm | - | - | - |
| 1777861521 | 17.78° C | 66% | 1019.9 hPa | 0 mm | - | - | - |
| 1777860917 | 18.33° C | 64% | 1019.9 hPa | 0 mm | - | - | - |
| 1777859129 | 19.44° C | 57% | 1019.8 hPa | 0 mm | - | - | - |
| 1777856720 | 21.67° C | 51% | 1019.6 hPa | 0 mm | - | - | - |
| 1777854327 | 22.78° C | 45% | 1019.5 hPa | 0 mm | - | - | - |
| 1777853125 | 23.89° C | 43% | 1019.6 hPa | 0 mm | - | - | - |
| 1777851917 | 25° C | 42% | 1019.8 hPa | 0 mm | - | - | - |
| 1777850721 | 25.56° C | 39% | 1019.8 hPa | 0 mm | - | - | - |
| 1777847117 | 25.56° C | 38% | 1020.1 hPa | 0 mm | - | - | - |
| 1777846519 | 26.11° C | 38% | 1020.1 hPa | 0 mm | - | - | - |
| 1777845921 | 26.11° C | 38% | 1020.4 hPa | 0 mm | - | - | - |
| 1777842921 | 26.11° C | 36% | 1021.4 hPa | 0 mm | - | - | - |
* Rain latest hour (hover to see other rain measurements)
** Current wind speed in m/s (hover to see current wind gust speed)